sensor_id;sensor_type;location;lat;lon;timestamp;temperature;humidity
21169;DHT22;10742;51.816;8.662;2022-10-16T00:01:21;18.70;94.10
21169;DHT22;10742;51.816;8.662;2022-10-16T00:04:23;18.70;94.10
21169;DHT22;10742;51.816;8.662;2022-10-16T00:07:27;18.70;94.10
21169;DHT22;10742;51.816;8.662;2022-10-16T00:10:29;18.70;94.10
21169;DHT22;10742;51.816;8.662;2022-10-16T00:13:33;18.70;94.10
21169;DHT22;10742;51.816;8.662;2022-10-16T00:16:36;18.70;94.10
21169;DHT22;10742;51.816;8.662;2022-10-16T00:19:39;18.70;94.10
21169;DHT22;10742;51.816;8.662;2022-10-16T00:22:42;18.70;94.10
21169;DHT22;10742;51.816;8.662;2022-10-16T00:25:44;18.60;94.10
21169;DHT22;10742;51.816;8.662;2022-10-16T00:28:49;18.60;94.10
21169;DHT22;10742;51.816;8.662;2022-10-16T00:31:51;18.60;94.10
21169;DHT22;10742;51.816;8.662;2022-10-16T00:34:54;18.60;94.10
21169;DHT22;10742;51.816;8.662;2022-10-16T00:37:56;18.60;94.10
21169;DHT22;10742;51.816;8.662;2022-10-16T00:40:59;18.60;94.10
21169;DHT22;10742;51.816;8.662;2022-10-16T00:44:40;18.50;94.10
21169;DHT22;10742;51.816;8.662;2022-10-16T00:47:30;18.50;94.10
21169;DHT22;10742;51.816;8.662;2022-10-16T00:50:34;18.50;94.10
21169;DHT22;10742;51.816;8.662;2022-10-16T00:53:37;18.50;94.10
21169;DHT22;10742;51.816;8.662;2022-10-16T00:56:40;18.50;94.10
21169;DHT22;10742;51.816;8.662;2022-10-16T00:59:43;18.50;94.10
21169;DHT22;10742;51.816;8.662;2022-10-16T01:02:52;18.50;94.20
21169;DHT22;10742;51.816;8.662;2022-10-16T01:06:40;18.40;94.20
21169;DHT22;10742;51.816;8.662;2022-10-16T01:13:07;18.40;94.20
21169;DHT22;10742;51.816;8.662;2022-10-16T01:19:44;18.30;94.20
21169;DHT22;10742;51.816;8.662;2022-10-16T01:27:26;18.30;94.30
21169;DHT22;10742;51.816;8.662;2022-10-16T01:30:21;18.30;94.20
21169;DHT22;10742;51.816;8.662;2022-10-16T01:33:34;18.20;94.30
21169;DHT22;10742;51.816;8.662;2022-10-16T01:36:41;18.20;94.30
21169;DHT22;10742;51.816;8.662;2022-10-16T01:39:49;18.20;94.30
21169;DHT22;10742;51.816;8.662;2022-10-16T01:42:58;18.10;94.30
21169;DHT22;10742;51.816;8.662;2022-10-16T01:46:03;18.10;94.50
21169;DHT22;10742;51.816;8.662;2022-10-16T01:49:06;18.10;94.50
21169;DHT22;10742;51.816;8.662;2022-10-16T01:52:14;18.00;94.50
21169;DHT22;10742;51.816;8.662;2022-10-16T01:55:22;18.00;94.60
21169;DHT22;10742;51.816;8.662;2022-10-16T01:58:28;18.00;94.70
21169;DHT22;10742;51.816;8.662;2022-10-16T02:01:35;18.00;94.70
21169;DHT22;10742;51.816;8.662;2022-10-16T02:04:58;18.00;94.70
21169;DHT22;10742;51.816;8.662;2022-10-16T02:08:05;18.00;94.70
21169;DHT22;10742;51.816;8.662;2022-10-16T02:11:07;18.00;94.60
21169;DHT22;10742;51.816;8.662;2022-10-16T02:14:13;17.90;94.50
21169;DHT22;10742;51.816;8.662;2022-10-16T02:17:17;17.90;94.60
21169;DHT22;10742;51.816;8.662;2022-10-16T02:20:25;17.90;94.70
21169;DHT22;10742;51.816;8.662;2022-10-16T02:27:11;17.90;95.30
21169;DHT22;10742;51.816;8.662;2022-10-16T02:30:29;17.80;94.90
21169;DHT22;10742;51.816;8.662;2022-10-16T02:33:33;17.80;94.90
21169;DHT22;10742;51.816;8.662;2022-10-16T02:36:38;17.80;94.80
21169;DHT22;10742;51.816;8.662;2022-10-16T02:39:42;17.70;94.80
21169;DHT22;10742;51.816;8.662;2022-10-16T02:42:44;17.70;94.90
21169;DHT22;10742;51.816;8.662;2022-10-16T02:45:47;17.70;94.90
21169;DHT22;10742;51.816;8.662;2022-10-16T02:48:49;17.70;95.00
21169;DHT22;10742;51.816;8.662;2022-10-16T02:51:52;17.70;95.00
21169;DHT22;10742;51.816;8.662;2022-10-16T02:54:54;17.70;95.10
21169;DHT22;10742;51.816;8.662;2022-10-16T02:57:58;17.70;95.20
21169;DHT22;10742;51.816;8.662;2022-10-16T03:01:00;17.70;95.20
21169;DHT22;10742;51.816;8.662;2022-10-16T03:04:03;17.70;95.20
21169;DHT22;10742;51.816;8.662;2022-10-16T03:07:05;17.70;95.30
21169;DHT22;10742;51.816;8.662;2022-10-16T03:10:08;17.70;95.30
21169;DHT22;10742;51.816;8.662;2022-10-16T03:13:11;17.70;95.30
21169;DHT22;10742;51.816;8.662;2022-10-16T03:16:13;17.70;95.20
21169;DHT22;10742;51.816;8.662;2022-10-16T03:19:16;17.70;95.20
21169;DHT22;10742;51.816;8.662;2022-10-16T03:22:19;17.70;95.20
21169;DHT22;10742;51.816;8.662;2022-10-16T03:25:22;17.70;95.20
21169;DHT22;10742;51.816;8.662;2022-10-16T03:28:24;17.70;95.20
21169;DHT22;10742;51.816;8.662;2022-10-16T03:31:27;17.70;95.20
21169;DHT22;10742;51.816;8.662;2022-10-16T03:34:29;17.70;95.20
21169;DHT22;10742;51.816;8.662;2022-10-16T03:37:52;17.70;95.20
21169;DHT22;10742;51.816;8.662;2022-10-16T03:41:14;17.70;95.20
21169;DHT22;10742;51.816;8.662;2022-10-16T03:44:35;17.70;95.20
21169;DHT22;10742;51.816;8.662;2022-10-16T03:47:56;17.70;95.20
21169;DHT22;10742;51.816;8.662;2022-10-16T03:51:17;17.60;95.20
21169;DHT22;10742;51.816;8.662;2022-10-16T03:54:38;17.70;95.30
21169;DHT22;10742;51.816;8.662;2022-10-16T03:58:00;17.60;95.30
21169;DHT22;10742;51.816;8.662;2022-10-16T04:01:21;17.70;95.70
21169;DHT22;10742;51.816;8.662;2022-10-16T04:04:43;17.70;95.30
21169;DHT22;10742;51.816;8.662;2022-10-16T04:08:04;17.70;95.40
21169;DHT22;10742;51.816;8.662;2022-10-16T04:11:25;17.70;95.40
21169;DHT22;10742;51.816;8.662;2022-10-16T04:14:47;17.60;95.40
21169;DHT22;10742;51.816;8.662;2022-10-16T04:17:49;17.70;95.40
21169;DHT22;10742;51.816;8.662;2022-10-16T04:20:53;17.70;95.40
21169;DHT22;10742;51.816;8.662;2022-10-16T04:23:56;17.70;95.40
21169;DHT22;10742;51.816;8.662;2022-10-16T04:26:58;17.70;95.40
21169;DHT22;10742;51.816;8.662;2022-10-16T04:30:01;17.70;95.40
21169;DHT22;10742;51.816;8.662;2022-10-16T04:33:03;17.70;95.40
21169;DHT22;10742;51.816;8.662;2022-10-16T04:36:06;17.70;95.40
21169;DHT22;10742;51.816;8.662;2022-10-16T04:39:09;17.70;95.40
21169;DHT22;10742;51.816;8.662;2022-10-16T04:42:11;17.70;95.40
21169;DHT22;10742;51.816;8.662;2022-10-16T04:45:14;17.70;95.40
21169;DHT22;10742;51.816;8.662;2022-10-16T04:48:18;17.80;95.50
21169;DHT22;10742;51.816;8.662;2022-10-16T04:51:20;17.70;95.40
21169;DHT22;10742;51.816;8.662;2022-10-16T04:54:23;17.80;95.40
21169;DHT22;10742;51.816;8.662;2022-10-16T04:57:25;17.80;95.40
21169;DHT22;10742;51.816;8.662;2022-10-16T05:00:28;17.80;95.40
21169;DHT22;10742;51.816;8.662;2022-10-16T05:03:31;17.80;95.40
21169;DHT22;10742;51.816;8.662;2022-10-16T05:06:33;17.80;95.40
21169;DHT22;10742;51.816;8.662;2022-10-16T05:09:36;17.80;95.40
21169;DHT22;10742;51.816;8.662;2022-10-16T05:12:38;17.80;95.40
21169;DHT22;10742;51.816;8.662;2022-10-16T05:15:41;17.80;95.30
21169;DHT22;10742;51.816;8.662;2022-10-16T05:18:43;17.90;95.30
21169;DHT22;10742;51.816;8.662;2022-10-16T05:21:46;17.80;95.30
21169;DHT22;10742;51.816;8.662;2022-10-16T05:24:48;17.80;95.30
21169;DHT22;10742;51.816;8.662;2022-10-16T05:27:51;17.80;95.30
21169;DHT22;10742;51.816;8.662;2022-10-16T05:30:54;17.80;95.30
21169;DHT22;10742;51.816;8.662;2022-10-16T05:33:59;17.80;95.20
21169;DHT22;10742;51.816;8.662;2022-10-16T05:37:02;17.80;95.30
21169;DHT22;10742;51.816;8.662;2022-10-16T05:40:05;17.90;95.30
21169;DHT22;10742;51.816;8.662;2022-10-16T05:43:09;17.90;95.30
21169;DHT22;10742;51.816;8.662;2022-10-16T05:46:11;17.90;95.30
21169;DHT22;10742;51.816;8.662;2022-10-16T05:49:14;17.80;95.30
21169;DHT22;10742;51.816;8.662;2022-10-16T05:52:16;17.80;95.30
21169;DHT22;10742;51.816;8.662;2022-10-16T05:55:20;17.90;95.30
21169;DHT22;10742;51.816;8.662;2022-10-16T05:58:23;17.90;95.20
21169;DHT22;10742;51.816;8.662;2022-10-16T06:01:26;17.80;95.20
21169;DHT22;10742;51.816;8.662;2022-10-16T06:04:28;17.80;95.20
21169;DHT22;10742;51.816;8.662;2022-10-16T06:07:34;17.80;95.20
21169;DHT22;10742;51.816;8.662;2022-10-16T06:10:37;17.90;95.30
21169;DHT22;10742;51.816;8.662;2022-10-16T06:13:40;17.80;95.20
21169;DHT22;10742;51.816;8.662;2022-10-16T06:16:44;17.80;95.30
21169;DHT22;10742;51.816;8.662;2022-10-16T06:19:47;17.80;95.30
21169;DHT22;10742;51.816;8.662;2022-10-16T06:22:49;17.80;95.30
21169;DHT22;10742;51.816;8.662;2022-10-16T06:25:52;17.80;95.30
21169;DHT22;10742;51.816;8.662;2022-10-16T06:28:55;17.80;95.40
21169;DHT22;10742;51.816;8.662;2022-10-16T06:31:58;17.90;95.40
21169;DHT22;10742;51.816;8.662;2022-10-16T06:35:01;17.90;95.40
21169;DHT22;10742;51.816;8.662;2022-10-16T06:38:03;17.90;95.40
21169;DHT22;10742;51.816;8.662;2022-10-16T06:41:07;17.90;95.40
21169;DHT22;10742;51.816;8.662;2022-10-16T06:44:11;17.90;95.40
21169;DHT22;10742;51.816;8.662;2022-10-16T06:47:13;18.00;95.40
21169;DHT22;10742;51.816;8.662;2022-10-16T06:50:16;18.00;95.40
21169;DHT22;10742;51.816;8.662;2022-10-16T06:53:19;18.00;95.40
21169;DHT22;10742;51.816;8.662;2022-10-16T06:56:24;18.00;95.40
21169;DHT22;10742;51.816;8.662;2022-10-16T06:59:27;18.00;95.40
21169;DHT22;10742;51.816;8.662;2022-10-16T07:02:29;18.10;95.40
21169;DHT22;10742;51.816;8.662;2022-10-16T07:05:36;18.20;95.40
21169;DHT22;10742;51.816;8.662;2022-10-16T07:08:41;18.20;95.30
21169;DHT22;10742;51.816;8.662;2022-10-16T07:11:44;18.20;95.30
21169;DHT22;10742;51.816;8.662;2022-10-16T07:14:46;18.30;95.60
21169;DHT22;10742;51.816;8.662;2022-10-16T07:17:49;18.30;95.80
21169;DHT22;10742;51.816;8.662;2022-10-16T07:20:52;18.50;95.90
21169;DHT22;10742;51.816;8.662;2022-10-16T07:23:57;18.60;96.10
21169;DHT22;10742;51.816;8.662;2022-10-16T07:26:59;18.70;96.00
21169;DHT22;10742;51.816;8.662;2022-10-16T07:30:04;18.80;96.10
21169;DHT22;10742;51.816;8.662;2022-10-16T07:33:08;18.90;95.80
21169;DHT22;10742;51.816;8.662;2022-10-16T07:36:11;19.10;95.70
21169;DHT22;10742;51.816;8.662;2022-10-16T07:39:17;19.20;95.60
21169;DHT22;10742;51.816;8.662;2022-10-16T07:42:20;19.30;95.60
21169;DHT22;10742;51.816;8.662;2022-10-16T07:45:23;19.50;95.50
21169;DHT22;10742;51.816;8.662;2022-10-16T07:48:29;19.60;95.20
21169;DHT22;10742;51.816;8.662;2022-10-16T07:51:32;19.70;95.30
21169;DHT22;10742;51.816;8.662;2022-10-16T07:54:34;19.90;95.30
21169;DHT22;10742;51.816;8.662;2022-10-16T07:57:37;20.00;95.30
21169;DHT22;10742;51.816;8.662;2022-10-16T08:00:59;20.10;95.20
21169;DHT22;10742;51.816;8.662;2022-10-16T08:04:20;20.30;95.00
21169;DHT22;10742;51.816;8.662;2022-10-16T08:07:41;20.50;95.10
21169;DHT22;10742;51.816;8.662;2022-10-16T08:11:03;20.70;94.90
21169;DHT22;10742;51.816;8.662;2022-10-16T08:14:25;20.80;94.60
21169;DHT22;10742;51.816;8.662;2022-10-16T08:17:28;21.00;94.30
21169;DHT22;10742;51.816;8.662;2022-10-16T08:20:31;21.10;94.00
21169;DHT22;10742;51.816;8.662;2022-10-16T08:23:34;21.20;93.70
21169;DHT22;10742;51.816;8.662;2022-10-16T08:26:37;21.30;93.50
21169;DHT22;10742;51.816;8.662;2022-10-16T08:29:40;21.40;93.30
21169;DHT22;10742;51.816;8.662;2022-10-16T08:32:42;21.40;93.10
21169;DHT22;10742;51.816;8.662;2022-10-16T08:35:54;21.50;92.90
21169;DHT22;10742;51.816;8.662;2022-10-16T08:38:57;21.50;92.50
21169;DHT22;10742;51.816;8.662;2022-10-16T08:49:02;21.70;92.50
21169;DHT22;10742;51.816;8.662;2022-10-16T08:52:12;21.80;92.60
21169;DHT22;10742;51.816;8.662;2022-10-16T08:55:37;21.90;92.50
21169;DHT22;10742;51.816;8.662;2022-10-16T08:58:40;22.00;92.20
21169;DHT22;10742;51.816;8.662;2022-10-16T09:01:46;22.10;92.60
21169;DHT22;10742;51.816;8.662;2022-10-16T09:16:18;22.70;91.50
21169;DHT22;10742;51.816;8.662;2022-10-16T09:19:33;22.80;91.50
21169;DHT22;10742;51.816;8.662;2022-10-16T09:22:40;23.00;91.30
21169;DHT22;10742;51.816;8.662;2022-10-16T09:25:48;23.10;91.20
21169;DHT22;10742;51.816;8.662;2022-10-16T09:28:52;23.20;90.60
21169;DHT22;10742;51.816;8.662;2022-10-16T09:31:57;23.30;90.60
21169;DHT22;10742;51.816;8.662;2022-10-16T09:35:19;23.30;90.10
21169;DHT22;10742;51.816;8.662;2022-10-16T09:38:29;23.40;89.60
21169;DHT22;10742;51.816;8.662;2022-10-16T09:41:35;23.40;89.20
21169;DHT22;10742;51.816;8.662;2022-10-16T09:44:39;23.50;89.20
21169;DHT22;10742;51.816;8.662;2022-10-16T09:47:42;23.50;89.30
21169;DHT22;10742;51.816;8.662;2022-10-16T09:50:58;23.50;89.40
21169;DHT22;10742;51.816;8.662;2022-10-16T09:57:12;23.50;87.00
21169;DHT22;10742;51.816;8.662;2022-10-16T10:00:16;23.50;87.10
21169;DHT22;10742;51.816;8.662;2022-10-16T10:03:39;23.50;87.10
21169;DHT22;10742;51.816;8.662;2022-10-16T10:06:53;23.50;86.10
21169;DHT22;10742;51.816;8.662;2022-10-16T10:09:57;23.50;85.90
21169;DHT22;10742;51.816;8.662;2022-10-16T10:13:00;23.60;86.70
21169;DHT22;10742;51.816;8.662;2022-10-16T10:16:03;23.60;85.40
21169;DHT22;10742;51.816;8.662;2022-10-16T10:19:14;23.70;84.90
21169;DHT22;10742;51.816;8.662;2022-10-16T10:22:18;23.60;83.70
21169;DHT22;10742;51.816;8.662;2022-10-16T10:26:28;23.70;84.10
21169;DHT22;10742;51.816;8.662;2022-10-16T10:32:40;23.70;82.70
21169;DHT22;10742;51.816;8.662;2022-10-16T10:39:20;23.80;81.90
21169;DHT22;10742;51.816;8.662;2022-10-16T10:42:39;23.90;81.90
21169;DHT22;10742;51.816;8.662;2022-10-16T10:45:47;24.00;81.80
21169;DHT22;10742;51.816;8.662;2022-10-16T11:06:06;24.40;79.80
21169;DHT22;10742;51.816;8.662;2022-10-16T11:15:47;24.50;80.00
21169;DHT22;10742;51.816;8.662;2022-10-16T11:25:40;24.60;78.10
21169;DHT22;10742;51.816;8.662;2022-10-16T11:28:53;24.70;78.60
21169;DHT22;10742;51.816;8.662;2022-10-16T11:32:10;24.60;76.80
21169;DHT22;10742;51.816;8.662;2022-10-16T11:35:23;24.70;77.20
21169;DHT22;10742;51.816;8.662;2022-10-16T11:38:48;24.60;77.60
21169;DHT22;10742;51.816;8.662;2022-10-16T11:42:19;24.60;77.20
21169;DHT22;10742;51.816;8.662;2022-10-16T11:46:07;24.60;76.90
21169;DHT22;10742;51.816;8.662;2022-10-16T11:49:10;24.60;76.40
21169;DHT22;10742;51.816;8.662;2022-10-16T11:52:23;24.60;76.90
21169;DHT22;10742;51.816;8.662;2022-10-16T11:55:36;24.60;77.80
21169;DHT22;10742;51.816;8.662;2022-10-16T12:08:53;24.80;76.90
21169;DHT22;10742;51.816;8.662;2022-10-16T12:11:56;24.90;77.50
21169;DHT22;10742;51.816;8.662;2022-10-16T12:15:27;24.90;77.10
21169;DHT22;10742;51.816;8.662;2022-10-16T12:18:45;24.90;75.70
21169;DHT22;10742;51.816;8.662;2022-10-16T12:21:50;25.00;76.50
21169;DHT22;10742;51.816;8.662;2022-10-16T12:24:54;25.00;76.00
21169;DHT22;10742;51.816;8.662;2022-10-16T12:27:59;25.00;76.20
21169;DHT22;10742;51.816;8.662;2022-10-16T12:31:07;25.00;76.00
21169;DHT22;10742;51.816;8.662;2022-10-16T12:34:32;25.10;75.70
21169;DHT22;10742;51.816;8.662;2022-10-16T12:37:38;25.00;75.00
21169;DHT22;10742;51.816;8.662;2022-10-16T12:40:41;25.00;75.70
21169;DHT22;10742;51.816;8.662;2022-10-16T12:43:46;25.00;75.30
21169;DHT22;10742;51.816;8.662;2022-10-16T12:46:50;25.00;75.20
21169;DHT22;10742;51.816;8.662;2022-10-16T12:49:54;25.00;75.70
21169;DHT22;10742;51.816;8.662;2022-10-16T12:52:57;25.00;75.40
21169;DHT22;10742;51.816;8.662;2022-10-16T13:16:08;25.00;72.20
21169;DHT22;10742;51.816;8.662;2022-10-16T13:29:15;25.00;73.10
21169;DHT22;10742;51.816;8.662;2022-10-16T13:32:20;25.00;73.50
21169;DHT22;10742;51.816;8.662;2022-10-16T13:35:25;24.90;74.40
21169;DHT22;10742;51.816;8.662;2022-10-16T13:38:31;25.00;73.20
21169;DHT22;10742;51.816;8.662;2022-10-16T13:41:35;24.90;73.00
21169;DHT22;10742;51.816;8.662;2022-10-16T13:44:44;25.00;73.00
21169;DHT22;10742;51.816;8.662;2022-10-16T13:47:48;25.00;72.30
21169;DHT22;10742;51.816;8.662;2022-10-16T13:54:14;24.90;72.20
21169;DHT22;10742;51.816;8.662;2022-10-16T13:57:17;24.90;72.00
21169;DHT22;10742;51.816;8.662;2022-10-16T14:00:28;24.90;71.80
21169;DHT22;10742;51.816;8.662;2022-10-16T14:03:33;24.80;72.30
21169;DHT22;10742;51.816;8.662;2022-10-16T14:06:42;24.80;72.70
21169;DHT22;10742;51.816;8.662;2022-10-16T14:09:49;24.80;71.70
21169;DHT22;10742;51.816;8.662;2022-10-16T14:13:06;24.70;71.80
21169;DHT22;10742;51.816;8.662;2022-10-16T14:16:11;24.70;71.50
21169;DHT22;10742;51.816;8.662;2022-10-16T14:19:27;24.70;72.30
21169;DHT22;10742;51.816;8.662;2022-10-16T14:22:43;24.60;71.80
21169;DHT22;10742;51.816;8.662;2022-10-16T14:25:46;24.50;71.70
21169;DHT22;10742;51.816;8.662;2022-10-16T14:29:03;24.50;72.40
21169;DHT22;10742;51.816;8.662;2022-10-16T14:32:23;24.50;71.40
21169;DHT22;10742;51.816;8.662;2022-10-16T14:38:32;24.40;72.00
21169;DHT22;10742;51.816;8.662;2022-10-16T14:41:43;24.40;72.00
21169;DHT22;10742;51.816;8.662;2022-10-16T14:44:48;24.30;71.20
21169;DHT22;10742;51.816;8.662;2022-10-16T14:47:56;24.20;71.80
21169;DHT22;10742;51.816;8.662;2022-10-16T14:50:59;24.20;71.60
21169;DHT22;10742;51.816;8.662;2022-10-16T14:54:02;24.20;71.90
21169;DHT22;10742;51.816;8.662;2022-10-16T14:57:05;24.10;72.00
21169;DHT22;10742;51.816;8.662;2022-10-16T15:00:21;24.10;72.10
21169;DHT22;10742;51.816;8.662;2022-10-16T15:03:25;24.00;71.50
21169;DHT22;10742;51.816;8.662;2022-10-16T15:06:28;24.00;72.30
21169;DHT22;10742;51.816;8.662;2022-10-16T15:09:30;23.90;72.30
21169;DHT22;10742;51.816;8.662;2022-10-16T15:12:33;23.90;72.40
21169;DHT22;10742;51.816;8.662;2022-10-16T15:15:39;23.80;72.40
21169;DHT22;10742;51.816;8.662;2022-10-16T15:18:43;23.80;72.70
21169;DHT22;10742;51.816;8.662;2022-10-16T15:21:45;23.70;73.00
21169;DHT22;10742;51.816;8.662;2022-10-16T15:24:50;23.70;73.20
21169;DHT22;10742;51.816;8.662;2022-10-16T15:27:52;23.70;73.20
21169;DHT22;10742;51.816;8.662;2022-10-16T15:30:56;23.60;73.20
21169;DHT22;10742;51.816;8.662;2022-10-16T15:33:59;23.60;73.20
21169;DHT22;10742;51.816;8.662;2022-10-16T15:37:06;23.60;73.50
21169;DHT22;10742;51.816;8.662;2022-10-16T15:40:10;23.50;73.80
21169;DHT22;10742;51.816;8.662;2022-10-16T15:43:13;23.50;74.10
21169;DHT22;10742;51.816;8.662;2022-10-16T15:46:18;23.40;74.30
21169;DHT22;10742;51.816;8.662;2022-10-16T15:49:21;23.40;74.40
21169;DHT22;10742;51.816;8.662;2022-10-16T15:52:24;23.30;74.60
21169;DHT22;10742;51.816;8.662;2022-10-16T15:55:27;23.20;74.90
21169;DHT22;10742;51.816;8.662;2022-10-16T15:58:29;23.20;75.40
21169;DHT22;10742;51.816;8.662;2022-10-16T16:01:33;23.10;75.60
21169;DHT22;10742;51.816;8.662;2022-10-16T16:04:36;23.00;75.90
21169;DHT22;10742;51.816;8.662;2022-10-16T16:07:44;23.00;76.10
21169;DHT22;10742;51.816;8.662;2022-10-16T16:11:01;22.90;76.20
21169;DHT22;10742;51.816;8.662;2022-10-16T16:14:07;22.90;76.50
21169;DHT22;10742;51.816;8.662;2022-10-16T16:17:09;22.90;76.80
21169;DHT22;10742;51.816;8.662;2022-10-16T16:20:12;22.80;77.00
21169;DHT22;10742;51.816;8.662;2022-10-16T16:23:15;22.70;77.20
21169;DHT22;10742;51.816;8.662;2022-10-16T16:26:26;22.70;77.40
21169;DHT22;10742;51.816;8.662;2022-10-16T16:29:29;22.60;78.00
21169;DHT22;10742;51.816;8.662;2022-10-16T16:32:31;22.50;78.00
21169;DHT22;10742;51.816;8.662;2022-10-16T16:35:34;22.50;78.20
21169;DHT22;10742;51.816;8.662;2022-10-16T16:38:37;22.40;78.30
21169;DHT22;10742;51.816;8.662;2022-10-16T16:41:39;22.30;78.40
21169;DHT22;10742;51.816;8.662;2022-10-16T16:44:42;22.30;78.80
21169;DHT22;10742;51.816;8.662;2022-10-16T16:47:44;22.20;79.00
21169;DHT22;10742;51.816;8.662;2022-10-16T16:50:47;22.10;79.40
21169;DHT22;10742;51.816;8.662;2022-10-16T16:53:51;22.10;79.80
21169;DHT22;10742;51.816;8.662;2022-10-16T16:56:55;22.00;80.00
21169;DHT22;10742;51.816;8.662;2022-10-16T17:00:01;22.00;80.40
21169;DHT22;10742;51.816;8.662;2022-10-16T17:03:05;21.90;80.40
21169;DHT22;10742;51.816;8.662;2022-10-16T17:06:09;21.80;80.70
21169;DHT22;10742;51.816;8.662;2022-10-16T17:09:12;21.80;81.20
21169;DHT22;10742;51.816;8.662;2022-10-16T17:12:17;21.70;81.30
21169;DHT22;10742;51.816;8.662;2022-10-16T17:15:20;21.70;81.40
21169;DHT22;10742;51.816;8.662;2022-10-16T17:18:23;21.60;81.50
21169;DHT22;10742;51.816;8.662;2022-10-16T17:21:26;21.60;81.80
21169;DHT22;10742;51.816;8.662;2022-10-16T17:24:31;21.20;84.30
21169;DHT22;10742;51.816;8.662;2022-10-16T17:27:34;21.20;83.80
21169;DHT22;10742;51.816;8.662;2022-10-16T17:30:41;21.30;83.60
21169;DHT22;10742;51.816;8.662;2022-10-16T17:33:44;21.30;83.60
21169;DHT22;10742;51.816;8.662;2022-10-16T17:36:47;21.30;83.40
21169;DHT22;10742;51.816;8.662;2022-10-16T17:39:50;21.20;84.10
21169;DHT22;10742;51.816;8.662;2022-10-16T17:42:53;21.20;83.30
21169;DHT22;10742;51.816;8.662;2022-10-16T17:45:56;21.10;83.40
21169;DHT22;10742;51.816;8.662;2022-10-16T17:48:59;21.10;83.90
21169;DHT22;10742;51.816;8.662;2022-10-16T17:52:02;21.10;84.10
21169;DHT22;10742;51.816;8.662;2022-10-16T17:55:05;21.00;84.20
21169;DHT22;10742;51.816;8.662;2022-10-16T17:58:08;21.00;84.30
21169;DHT22;10742;51.816;8.662;2022-10-16T18:04:16;20.90;84.60
21169;DHT22;10742;51.816;8.662;2022-10-16T18:07:19;20.90;84.80
21169;DHT22;10742;51.816;8.662;2022-10-16T18:10:21;20.80;84.80
21169;DHT22;10742;51.816;8.662;2022-10-16T18:13:24;20.80;84.80
21169;DHT22;10742;51.816;8.662;2022-10-16T18:16:29;20.80;84.90
21169;DHT22;10742;51.816;8.662;2022-10-16T18:19:32;20.70;85.10
21169;DHT22;10742;51.816;8.662;2022-10-16T18:22:35;20.70;85.20
21169;DHT22;10742;51.816;8.662;2022-10-16T18:25:38;20.60;85.40
21169;DHT22;10742;51.816;8.662;2022-10-16T18:28:41;20.60;85.50
21169;DHT22;10742;51.816;8.662;2022-10-16T18:31:44;20.60;85.80
21169;DHT22;10742;51.816;8.662;2022-10-16T18:34:46;20.50;85.80
21169;DHT22;10742;51.816;8.662;2022-10-16T18:37:49;20.50;86.00
21169;DHT22;10742;51.816;8.662;2022-10-16T18:40:51;20.50;86.10
21169;DHT22;10742;51.816;8.662;2022-10-16T18:43:54;20.50;86.30
21169;DHT22;10742;51.816;8.662;2022-10-16T18:47:00;20.50;86.30
21169;DHT22;10742;51.816;8.662;2022-10-16T18:50:03;20.50;86.30
21169;DHT22;10742;51.816;8.662;2022-10-16T18:53:09;20.50;86.50
21169;DHT22;10742;51.816;8.662;2022-10-16T18:56:13;20.40;86.40
21169;DHT22;10742;51.816;8.662;2022-10-16T18:59:16;20.50;86.60
21169;DHT22;10742;51.816;8.662;2022-10-16T19:02:18;20.40;86.60
21169;DHT22;10742;51.816;8.662;2022-10-16T19:05:21;20.40;86.70
21169;DHT22;10742;51.816;8.662;2022-10-16T19:08:24;20.40;86.70
21169;DHT22;10742;51.816;8.662;2022-10-16T19:11:26;20.30;86.80
21169;DHT22;10742;51.816;8.662;2022-10-16T19:14:29;20.30;87.00
21169;DHT22;10742;51.816;8.662;2022-10-16T19:17:34;20.20;87.20
21169;DHT22;10742;51.816;8.662;2022-10-16T19:20:38;20.20;87.30
21169;DHT22;10742;51.816;8.662;2022-10-16T19:23:41;20.20;87.30
21169;DHT22;10742;51.816;8.662;2022-10-16T19:26:44;20.20;87.40
21169;DHT22;10742;51.816;8.662;2022-10-16T19:29:46;20.10;87.40
21169;DHT22;10742;51.816;8.662;2022-10-16T19:32:49;20.10;87.30
21169;DHT22;10742;51.816;8.662;2022-10-16T19:35:53;20.10;87.40
21169;DHT22;10742;51.816;8.662;2022-10-16T19:39:02;20.10;87.50
21169;DHT22;10742;51.816;8.662;2022-10-16T19:42:06;20.00;87.80
21169;DHT22;10742;51.816;8.662;2022-10-16T19:45:10;20.00;87.70
21169;DHT22;10742;51.816;8.662;2022-10-16T19:48:13;19.90;87.80
21169;DHT22;10742;51.816;8.662;2022-10-16T19:51:17;20.00;88.10
21169;DHT22;10742;51.816;8.662;2022-10-16T19:54:20;20.00;88.30
21169;DHT22;10742;51.816;8.662;2022-10-16T19:57:24;20.00;88.40
21169;DHT22;10742;51.816;8.662;2022-10-16T20:00:27;20.00;88.60
21169;DHT22;10742;51.816;8.662;2022-10-16T20:03:30;20.00;88.70
21169;DHT22;10742;51.816;8.662;2022-10-16T20:06:33;20.00;88.80
21169;DHT22;10742;51.816;8.662;2022-10-16T20:09:35;20.00;88.90
21169;DHT22;10742;51.816;8.662;2022-10-16T20:12:37;19.90;89.00
21169;DHT22;10742;51.816;8.662;2022-10-16T20:15:40;19.90;89.30
21169;DHT22;10742;51.816;8.662;2022-10-16T20:18:43;19.90;89.40
21169;DHT22;10742;51.816;8.662;2022-10-16T20:21:45;19.90;89.60
21169;DHT22;10742;51.816;8.662;2022-10-16T20:24:47;19.90;89.80
21169;DHT22;10742;51.816;8.662;2022-10-16T20:27:50;19.90;89.90
21169;DHT22;10742;51.816;8.662;2022-10-16T20:30:52;19.90;90.30
21169;DHT22;10742;51.816;8.662;2022-10-16T20:33:57;19.90;90.10
21169;DHT22;10742;51.816;8.662;2022-10-16T20:36:59;20.00;90.20
21169;DHT22;10742;51.816;8.662;2022-10-16T20:40:02;20.00;90.30
21169;DHT22;10742;51.816;8.662;2022-10-16T20:43:06;20.00;90.50
21169;DHT22;10742;51.816;8.662;2022-10-16T20:46:10;20.00;90.60
21169;DHT22;10742;51.816;8.662;2022-10-16T20:49:16;20.00;90.70
21169;DHT22;10742;51.816;8.662;2022-10-16T20:52:33;20.00;90.80
21169;DHT22;10742;51.816;8.662;2022-10-16T20:55:36;20.00;91.10
21169;DHT22;10742;51.816;8.662;2022-10-16T20:58:39;19.90;91.10
21169;DHT22;10742;51.816;8.662;2022-10-16T21:01:42;19.90;91.10
21169;DHT22;10742;51.816;8.662;2022-10-16T21:04:46;19.90;91.20
21169;DHT22;10742;51.816;8.662;2022-10-16T21:07:49;19.90;91.40
21169;DHT22;10742;51.816;8.662;2022-10-16T21:10:51;19.90;91.40
21169;DHT22;10742;51.816;8.662;2022-10-16T21:13:56;19.90;91.50
21169;DHT22;10742;51.816;8.662;2022-10-16T21:16:59;19.90;91.70
21169;DHT22;10742;51.816;8.662;2022-10-16T21:20:03;19.90;91.80
21169;DHT22;10742;51.816;8.662;2022-10-16T21:23:05;19.80;91.90
21169;DHT22;10742;51.816;8.662;2022-10-16T21:26:08;19.80;92.10
21169;DHT22;10742;51.816;8.662;2022-10-16T21:29:10;19.80;92.10
21169;DHT22;10742;51.816;8.662;2022-10-16T21:32:13;19.80;92.20
21169;DHT22;10742;51.816;8.662;2022-10-16T21:35:16;19.80;92.30
21169;DHT22;10742;51.816;8.662;2022-10-16T21:38:19;19.80;92.40